sensor_id;sensor_type;location;lat;lon;timestamp;pressure;altitude;pressure_sealevel;temperature;humidity
35694;BME280;21812;55.536;37.664;2023-11-18T00:00:23;100631.25;;;-4.12;62.34
35694;BME280;21812;55.536;37.664;2023-11-18T00:02:50;100635.78;;;-4.16;62.76
35694;BME280;21812;55.536;37.664;2023-11-18T00:05:16;100639.41;;;-4.18;61.99
35694;BME280;21812;55.536;37.664;2023-11-18T00:07:43;100627.69;;;-4.28;61.93
35694;BME280;21812;55.536;37.664;2023-11-18T00:10:09;100642.31;;;-4.24;62.04
35694;BME280;21812;55.536;37.664;2023-11-18T00:12:36;100633.47;;;-4.22;62.04
35694;BME280;21812;55.536;37.664;2023-11-18T00:15:05;100635.09;;;-4.19;62.06
35694;BME280;21812;55.536;37.664;2023-11-18T00:17:34;100631.09;;;-4.26;62.38
35694;BME280;21812;55.536;37.664;2023-11-18T00:19:59;100625.09;;;-4.28;62.44
35694;BME280;21812;55.536;37.664;2023-11-18T00:22:25;100632.00;;;-4.27;62.24
35694;BME280;21812;55.536;37.664;2023-11-18T00:24:53;100637.28;;;-4.29;62.46
35694;BME280;21812;55.536;37.664;2023-11-18T00:27:20;100640.06;;;-4.32;62.34
35694;BME280;21812;55.536;37.664;2023-11-18T00:29:48;100640.06;;;-4.32;62.55
35694;BME280;21812;55.536;37.664;2023-11-18T00:32:14;100646.81;;;-4.28;62.66
35694;BME280;21812;55.536;37.664;2023-11-18T00:34:39;100645.88;;;-4.27;62.12
35694;BME280;21812;55.536;37.664;2023-11-18T00:37:05;100641.53;;;-4.26;62.22
35694;BME280;21812;55.536;37.664;2023-11-18T00:39:31;100648.41;;;-4.25;62.56
35694;BME280;21812;55.536;37.664;2023-11-18T00:41:57;100647.53;;;-4.24;62.90
35694;BME280;21812;55.536;37.664;2023-11-18T00:44:23;100649.69;;;-4.34;62.71
35694;BME280;21812;55.536;37.664;2023-11-18T00:46:48;100649.22;;;-4.42;62.46
35694;BME280;21812;55.536;37.664;2023-11-18T00:49:14;100652.81;;;-4.45;62.73
35694;BME280;21812;55.536;37.664;2023-11-18T00:51:39;100653.72;;;-4.46;63.08
35694;BME280;21812;55.536;37.664;2023-11-18T00:54:07;100655.56;;;-4.48;63.11
35694;BME280;21812;55.536;37.664;2023-11-18T00:56:33;100654.72;;;-4.48;63.50
35694;BME280;21812;55.536;37.664;2023-11-18T00:59:00;100659.94;;;-4.48;63.01
35694;BME280;21812;55.536;37.664;2023-11-18T01:01:28;100655.56;;;-4.48;63.32
35694;BME280;21812;55.536;37.664;2023-11-18T01:03:55;100654.66;;;-4.47;63.47
35694;BME280;21812;55.536;37.664;2023-11-18T01:06:28;100664.31;;;-4.49;63.28
35694;BME280;21812;55.536;37.664;2023-11-18T01:08:54;100667.97;;;-4.53;63.50
35694;BME280;21812;55.536;37.664;2023-11-18T01:11:19;100664.72;;;-4.58;63.42
35694;BME280;21812;55.536;37.664;2023-11-18T01:13:46;100669.94;;;-4.58;63.30
35694;BME280;21812;55.536;37.664;2023-11-18T01:16:12;100668.22;;;-4.59;62.70
35694;BME280;21812;55.536;37.664;2023-11-18T01:18:40;100668.41;;;-4.62;63.60
35694;BME280;21812;55.536;37.664;2023-11-18T01:21:06;100669.94;;;-4.58;64.00
35694;BME280;21812;55.536;37.664;2023-11-18T01:23:35;100664.72;;;-4.58;63.29
35694;BME280;21812;55.536;37.664;2023-11-18T01:26:02;100665.78;;;-4.62;63.64
35694;BME280;21812;55.536;37.664;2023-11-18T01:28:31;100654.72;;;-4.67;63.75
35694;BME280;21812;55.536;37.664;2023-11-18T01:31:03;100663.59;;;-4.72;63.53
35694;BME280;21812;55.536;37.664;2023-11-18T01:33:30;100650.38;;;-4.87;63.37
35694;BME280;21812;55.536;37.664;2023-11-18T01:35:58;100664.06;;;-4.82;64.09
35694;BME280;21812;55.536;37.664;2023-11-18T01:38:24;100664.13;;;-4.84;64.01
35694;BME280;21812;55.536;37.664;2023-11-18T01:40:52;100674.56;;;-4.84;63.89
35694;BME280;21812;55.536;37.664;2023-11-18T01:43:19;100665.13;;;-4.86;63.72
35694;BME280;21812;55.536;37.664;2023-11-18T01:45:48;100673.78;;;-4.86;63.82
35694;BME280;21812;55.536;37.664;2023-11-18T01:48:14;100684.06;;;-4.83;63.84
35694;BME280;21812;55.536;37.664;2023-11-18T01:50:41;100644.13;;;-5.02;63.51
35694;BME280;21812;55.536;37.664;2023-11-18T01:53:09;100677.25;;;-4.85;63.89
35694;BME280;21812;55.536;37.664;2023-11-18T01:55:36;100673.06;;;-4.89;63.56
35694;BME280;21812;55.536;37.664;2023-11-18T01:58:02;100666.94;;;-4.88;63.44
35694;BME280;21812;55.536;37.664;2023-11-18T02:00:36;100664.41;;;-4.90;62.97
35694;BME280;21812;55.536;37.664;2023-11-18T02:03:05;100681.09;;;-4.94;62.90
35694;BME280;21812;55.536;37.664;2023-11-18T02:05:32;100682.28;;;-5.01;63.42
35694;BME280;21812;55.536;37.664;2023-11-18T02:08:00;100689.19;;;-5.00;64.53
35694;BME280;21812;55.536;37.664;2023-11-18T02:10:27;100687.28;;;-4.97;64.94
35694;BME280;21812;55.536;37.664;2023-11-18T02:13:35;100683.81;;;-4.97;64.95
35694;BME280;21812;55.536;37.664;2023-11-18T02:15:42;100684.81;;;-5.00;64.70
35694;BME280;21812;55.536;37.664;2023-11-18T02:18:09;100684.22;;;-5.06;64.18
35694;BME280;21812;55.536;37.664;2023-11-18T02:20:56;100685.03;;;-5.04;64.13
35694;BME280;21812;55.536;37.664;2023-11-18T02:23:27;100680.22;;;-5.14;63.30
35694;BME280;21812;55.536;37.664;2023-11-18T02:25:54;100682.50;;;-5.26;63.74
35694;BME280;21812;55.536;37.664;2023-11-18T02:28:23;100686.31;;;-5.35;64.21
35694;BME280;21812;55.536;37.664;2023-11-18T02:30:54;100653.38;;;-5.57;64.15
35694;BME280;21812;55.536;37.664;2023-11-18T02:33:27;100691.34;;;-5.31;64.77
35694;BME280;21812;55.536;37.664;2023-11-18T02:36:20;100689.25;;;-5.22;64.31
35694;BME280;21812;55.536;37.664;2023-11-18T02:38:50;100679.38;;;-5.35;64.09
35694;BME280;21812;55.536;37.664;2023-11-18T02:41:16;100690.63;;;-5.34;64.59
35694;BME280;21812;55.536;37.664;2023-11-18T02:43:44;100684.50;;;-5.33;64.71
35694;BME280;21812;55.536;37.664;2023-11-18T02:46:11;100679.38;;;-5.35;64.91
35694;BME280;21812;55.536;37.664;2023-11-18T02:48:38;100687.25;;;-5.36;64.70
35694;BME280;21812;55.536;37.664;2023-11-18T02:51:05;100683.88;;;-5.38;64.35
35694;BME280;21812;55.536;37.664;2023-11-18T02:53:33;100687.25;;;-5.36;64.40
35694;BME280;21812;55.536;37.664;2023-11-18T02:55:59;100685.53;;;-5.37;64.92
35694;BME280;21812;55.536;37.664;2023-11-18T02:58:29;100680.34;;;-5.37;64.60
35694;BME280;21812;55.536;37.664;2023-11-18T03:00:55;100687.38;;;-5.39;64.94
35694;BME280;21812;55.536;37.664;2023-11-18T03:03:21;100693.41;;;-5.39;64.99
35694;BME280;21812;55.536;37.664;2023-11-18T03:05:47;100686.53;;;-5.40;64.36
35694;BME280;21812;55.536;37.664;2023-11-18T03:08:15;100690.81;;;-5.39;64.49
35694;BME280;21812;55.536;37.664;2023-11-18T03:10:41;100683.91;;;-5.40;64.08
35694;BME280;21812;55.536;37.664;2023-11-18T03:13:10;100689.97;;;-5.39;64.71
35694;BME280;21812;55.536;37.664;2023-11-18T03:15:38;100700.38;;;-5.39;64.43
35694;BME280;21812;55.536;37.664;2023-11-18T03:18:04;100687.31;;;-5.38;64.09
35694;BME280;21812;55.536;37.664;2023-11-18T03:20:33;100690.75;;;-5.37;64.00
35694;BME280;21812;55.536;37.664;2023-11-18T03:23:00;100695.00;;;-5.35;64.27
35694;BME280;21812;55.536;37.664;2023-11-18T03:25:28;100689.97;;;-5.39;64.20
35694;BME280;21812;55.536;37.664;2023-11-18T03:27:54;100688.28;;;-5.40;64.35
35694;BME280;21812;55.536;37.664;2023-11-18T03:30:21;100696.72;;;-5.35;64.74
35694;BME280;21812;55.536;37.664;2023-11-18T03:32:46;100699.28;;;-5.34;64.59
35694;BME280;21812;55.536;37.664;2023-11-18T03:35:12;100697.44;;;-5.32;64.33
35694;BME280;21812;55.536;37.664;2023-11-18T03:37:40;100680.34;;;-5.37;64.19
35694;BME280;21812;55.536;37.664;2023-11-18T03:40:08;100689.97;;;-5.39;64.12
35694;BME280;21812;55.536;37.664;2023-11-18T03:42:35;100701.75;;;-5.31;64.35
35694;BME280;21812;55.536;37.664;2023-11-18T03:45:04;100705.25;;;-5.32;63.86
35694;BME280;21812;55.536;37.664;2023-11-18T03:47:32;100699.22;;;-5.32;63.72
35694;BME280;21812;55.536;37.664;2023-11-18T03:50:00;100711.72;;;-5.40;63.63
35694;BME280;21812;55.536;37.664;2023-11-18T03:52:25;100706.91;;;-5.50;64.47
35694;BME280;21812;55.536;37.664;2023-11-18T03:54:53;100705.06;;;-5.47;64.41
35694;BME280;21812;55.536;37.664;2023-11-18T03:57:21;100694.78;;;-5.51;65.15
35694;BME280;21812;55.536;37.664;2023-11-18T03:59:46;100700.66;;;-5.45;64.16
35694;BME280;21812;55.536;37.664;2023-11-18T04:02:12;100707.00;;;-5.53;63.98
35694;BME280;21812;55.536;37.664;2023-11-18T04:04:39;100714.66;;;-5.48;64.58
35694;BME280;21812;55.536;37.664;2023-11-18T04:07:04;100716.59;;;-5.53;64.01
35694;BME280;21812;55.536;37.664;2023-11-18T04:09:32;100708.97;;;-5.58;64.69
35694;BME280;21812;55.536;37.664;2023-11-18T04:11:58;100713.38;;;-5.60;64.55
35694;BME280;21812;55.536;37.664;2023-11-18T04:14:24;100715.84;;;-5.57;64.06
35694;BME280;21812;55.536;37.664;2023-11-18T04:16:51;100716.91;;;-5.61;64.34
35694;BME280;21812;55.536;37.664;2023-11-18T04:19:18;100718.34;;;-5.54;65.25
35694;BME280;21812;55.536;37.664;2023-11-18T04:21:43;100714.97;;;-5.56;65.17
35694;BME280;21812;55.536;37.664;2023-11-18T04:24:14;100720.16;;;-5.56;64.79
35694;BME280;21812;55.536;37.664;2023-11-18T04:26:41;100720.34;;;-5.60;64.54
35694;BME280;21812;55.536;37.664;2023-11-18T04:29:07;100724.97;;;-5.67;64.57
35694;BME280;21812;55.536;37.664;2023-11-18T04:31:33;100718.72;;;-5.63;64.89
35694;BME280;21812;55.536;37.664;2023-11-18T04:34:03;100718.81;;;-5.66;65.25
35694;BME280;21812;55.536;37.664;2023-11-18T04:36:32;100728.19;;;-5.62;65.17
35694;BME280;21812;55.536;37.664;2023-11-18T04:38:58;100727.41;;;-5.64;65.25
35694;BME280;21812;55.536;37.664;2023-11-18T04:41:24;100730.06;;;-5.65;64.64
35694;BME280;21812;55.536;37.664;2023-11-18T04:43:50;100719.50;;;-5.61;65.14
35694;BME280;21812;55.536;37.664;2023-11-18T04:46:16;100728.94;;;-5.58;64.88
35694;BME280;21812;55.536;37.664;2023-11-18T04:48:42;100721.13;;;-5.58;65.31
35694;BME280;21812;55.536;37.664;2023-11-18T04:51:09;100724.59;;;-5.58;65.02
35694;BME280;21812;55.536;37.664;2023-11-18T04:53:35;100724.75;;;-5.62;65.36
35694;BME280;21812;55.536;37.664;2023-11-18T04:56:01;100724.19;;;-5.69;64.96
35694;BME280;21812;55.536;37.664;2023-11-18T04:58:27;100722.47;;;-5.70;64.68
35694;BME280;21812;55.536;37.664;2023-11-18T05:00:53;100728.41;;;-5.66;64.74
35694;BME280;21812;55.536;37.664;2023-11-18T05:03:19;100726.38;;;-5.60;64.80
35694;BME280;21812;55.536;37.664;2023-11-18T05:05:45;100721.16;;;-5.60;65.06
35694;BME280;21812;55.536;37.664;2023-11-18T05:08:20;100731.16;;;-5.49;65.37
35694;BME280;21812;55.536;37.664;2023-11-18T05:10:47;100727.09;;;-5.56;65.69
35694;BME280;21812;55.536;37.664;2023-11-18T05:13:13;100736.41;;;-5.51;65.04
35694;BME280;21812;55.536;37.664;2023-11-18T05:15:46;100725.16;;;-5.51;65.43
35694;BME280;21812;55.536;37.664;2023-11-18T05:18:13;100734.59;;;-5.48;65.53
35694;BME280;21812;55.536;37.664;2023-11-18T05:20:42;100737.16;;;-5.47;65.18
35694;BME280;21812;55.536;37.664;2023-11-18T05:23:08;100737.28;;;-5.50;65.17
35694;BME280;21812;55.536;37.664;2023-11-18T05:25:40;100735.22;;;-5.42;65.25
35694;BME280;21812;55.536;37.664;2023-11-18T05:28:06;100736.31;;;-5.47;65.21
35694;BME280;21812;55.536;37.664;2023-11-18T05:30:38;100722.03;;;-5.59;65.48
35694;BME280;21812;55.536;37.664;2023-11-18T05:33:05;100735.47;;;-5.48;65.11
35694;BME280;21812;55.536;37.664;2023-11-18T05:35:32;100740.41;;;-5.42;65.45
35694;BME280;21812;55.536;37.664;2023-11-18T05:38:01;100742.69;;;-5.34;64.70
35694;BME280;21812;55.536;37.664;2023-11-18T05:40:31;100746.09;;;-5.32;64.49
35694;BME280;21812;55.536;37.664;2023-11-18T05:42:58;100742.97;;;-5.40;64.78
35694;BME280;21812;55.536;37.664;2023-11-18T05:45:24;100746.34;;;-5.38;65.55
35694;BME280;21812;55.536;37.664;2023-11-18T05:47:54;100741.66;;;-5.30;65.01
35694;BME280;21812;55.536;37.664;2023-11-18T05:50:21;100748.50;;;-5.27;64.55
35694;BME280;21812;55.536;37.664;2023-11-18T05:52:47;100748.50;;;-5.27;64.86
35694;BME280;21812;55.536;37.664;2023-11-18T05:55:13;100747.47;;;-5.23;65.40
35694;BME280;21812;55.536;37.664;2023-11-18T05:57:39;100748.38;;;-5.24;65.39
35694;BME280;21812;55.536;37.664;2023-11-18T06:00:05;100752.59;;;-5.22;65.35
35694;BME280;21812;55.536;37.664;2023-11-18T06:02:38;100760.50;;;-5.23;65.79
35694;BME280;21812;55.536;37.664;2023-11-18T06:05:05;100754.31;;;-5.21;65.71
35694;BME280;21812;55.536;37.664;2023-11-18T06:07:31;100760.94;;;-5.14;65.80
35694;BME280;21812;55.536;37.664;2023-11-18T06:09:56;100748.72;;;-5.12;65.59
35694;BME280;21812;55.536;37.664;2023-11-18T06:12:23;100766.22;;;-4.95;65.32
35694;BME280;21812;55.536;37.664;2023-11-18T06:14:49;100770.97;;;-4.84;65.35
35694;BME280;21812;55.536;37.664;2023-11-18T06:17:16;100770.56;;;-4.75;65.01
35694;BME280;21812;55.536;37.664;2023-11-18T06:19:44;100768.56;;;-4.68;64.68
35694;BME280;21812;55.536;37.664;2023-11-18T06:22:10;100769.41;;;-4.67;64.31
35694;BME280;21812;55.536;37.664;2023-11-18T06:24:36;100772.91;;;-4.68;64.45
35694;BME280;21812;55.536;37.664;2023-11-18T06:27:05;100774.88;;;-4.74;64.29
35694;BME280;21812;55.536;37.664;2023-11-18T06:29:32;100770.63;;;-4.76;64.53
35694;BME280;21812;55.536;37.664;2023-11-18T06:31:58;100775.44;;;-4.67;64.35
35694;BME280;21812;55.536;37.664;2023-11-18T06:34:24;100773.44;;;-4.60;63.81
35694;BME280;21812;55.536;37.664;2023-11-18T06:36:51;100770.56;;;-4.54;63.63
35694;BME280;21812;55.536;37.664;2023-11-18T06:39:17;100763.94;;;-4.42;63.43
35694;BME280;21812;55.536;37.664;2023-11-18T06:41:45;100769.59;;;-4.33;62.79
35694;BME280;21812;55.536;37.664;2023-11-18T06:44:16;100779.06;;;-4.30;62.79
35694;BME280;21812;55.536;37.664;2023-11-18T06:46:50;100766.19;;;-4.35;62.90
35694;BME280;21812;55.536;37.664;2023-11-18T06:49:17;100776.50;;;-4.32;62.69
35694;BME280;21812;55.536;37.664;2023-11-18T06:51:44;100781.91;;;-4.36;62.60
35694;BME280;21812;55.536;37.664;2023-11-18T06:54:10;100771.63;;;-4.39;63.47
35694;BME280;21812;55.536;37.664;2023-11-18T06:56:41;100772.34;;;-4.36;63.21
35694;BME280;21812;55.536;37.664;2023-11-18T06:59:11;100774.53;;;-4.26;62.92
35694;BME280;21812;55.536;37.664;2023-11-18T07:01:41;100781.03;;;-4.16;62.67
35694;BME280;21812;55.536;37.664;2023-11-18T07:04:08;100777.72;;;-4.20;62.45
35694;BME280;21812;55.536;37.664;2023-11-18T07:06:34;100780.81;;;-4.12;63.01
35694;BME280;21812;55.536;37.664;2023-11-18T07:09:05;100780.75;;;-4.10;62.37
35694;BME280;21812;55.536;37.664;2023-11-18T07:11:41;100780.09;;;-3.96;62.74
35694;BME280;21812;55.536;37.664;2023-11-18T07:14:08;100782.56;;;-3.93;62.05
35694;BME280;21812;55.536;37.664;2023-11-18T07:16:35;100760.28;;;-4.00;62.02
35694;BME280;21812;55.536;37.664;2023-11-18T07:19:01;100779.59;;;-3.85;61.92
35694;BME280;21812;55.536;37.664;2023-11-18T07:21:29;100779.47;;;-3.82;62.22
35694;BME280;21812;55.536;37.664;2023-11-18T07:23:55;100781.78;;;-3.76;62.19
35694;BME280;21812;55.536;37.664;2023-11-18T07:26:21;100777.09;;;-3.69;61.63
35694;BME280;21812;55.536;37.664;2023-11-18T07:28:46;100773.66;;;-3.70;61.43
35694;BME280;21812;55.536;37.664;2023-11-18T07:31:12;100779.03;;;-3.73;61.04
35694;BME280;21812;55.536;37.664;2023-11-18T07:33:38;100781.34;;;-3.67;60.95
35694;BME280;21812;55.536;37.664;2023-11-18T07:36:04;100784.38;;;-3.57;60.83
35694;BME280;21812;55.536;37.664;2023-11-18T07:38:31;100778.44;;;-3.61;60.69
35694;BME280;21812;55.536;37.664;2023-11-18T07:40:59;100777.97;;;-3.69;61.03
35694;BME280;21812;55.536;37.664;2023-11-18T07:43:28;100783.97;;;-3.67;61.13
35694;BME280;21812;55.536;37.664;2023-11-18T07:45:54;100786.41;;;-3.64;61.15
35694;BME280;21812;55.536;37.664;2023-11-18T07:48:21;100778.56;;;-3.64;61.27
35694;BME280;21812;55.536;37.664;2023-11-18T07:50:47;100790.22;;;-3.52;61.81
35694;BME280;21812;55.536;37.664;2023-11-18T07:53:13;100779.00;;;-3.54;61.44
35694;BME280;21812;55.536;37.664;2023-11-18T07:55:39;100785.78;;;-3.50;61.36
35694;BME280;21812;55.536;37.664;2023-11-18T07:58:09;100787.63;;;-3.52;61.41
35694;BME280;21812;55.536;37.664;2023-11-18T08:00:42;100782.09;;;-3.46;61.38
35694;BME280;21812;55.536;37.664;2023-11-18T08:03:09;100782.78;;;-3.42;61.09
35694;BME280;21812;55.536;37.664;2023-11-18T08:05:42;100775.72;;;-3.40;60.59
35694;BME280;21812;55.536;37.664;2023-11-18T08:08:13;100764.94;;;-3.51;61.05
35694;BME280;21812;55.536;37.664;2023-11-18T08:10:40;100786.16;;;-3.40;61.16
35694;BME280;21812;55.536;37.664;2023-11-18T08:13:07;100780.63;;;-3.34;61.29
35694;BME280;21812;55.536;37.664;2023-11-18T08:15:35;100783.09;;;-3.31;61.07
35694;BME280;21812;55.536;37.664;2023-11-18T08:18:01;100781.88;;;-3.24;60.99
35694;BME280;21812;55.536;37.664;2023-11-18T08:20:28;100778.34;;;-3.23;60.46
35694;BME280;21812;55.536;37.664;2023-11-18T08:22:54;100777.25;;;-3.19;60.91
35694;BME280;21812;55.536;37.664;2023-11-18T08:25:21;100776.50;;;-3.21;60.42
35694;BME280;21812;55.536;37.664;2023-11-18T08:27:47;100763.88;;;-3.30;60.39
35694;BME280;21812;55.536;37.664;2023-11-18T08:30:14;100779.03;;;-3.19;60.69
35694;BME280;21812;55.536;37.664;2023-11-18T08:32:41;100767.59;;;-3.17;60.72
35694;BME280;21812;55.536;37.664;2023-11-18T08:35:11;100765.84;;;-2.99;61.03
35694;BME280;21812;55.536;37.664;2023-11-18T08:37:40;100776.34;;;-2.83;61.01
35694;BME280;21812;55.536;37.664;2023-11-18T08:40:07;100770.97;;;-2.80;60.83
35694;BME280;21812;55.536;37.664;2023-11-18T08:42:47;100781.31;;;-2.78;60.29
35694;BME280;21812;55.536;37.664;2023-11-18T08:45:20;100778.69;;;-2.78;59.87
35694;BME280;21812;55.536;37.664;2023-11-18T08:48:02;100749.38;;;-2.83;60.31
35694;BME280;21812;55.536;37.664;2023-11-18T08:50:33;100781.19;;;-2.75;60.35
35694;BME280;21812;55.536;37.664;2023-11-18T08:52:59;100776.19;;;-2.80;60.31
35694;BME280;21812;55.536;37.664;2023-11-18T08:55:31;100766.41;;;-2.76;60.45
35694;BME280;21812;55.536;37.664;2023-11-18T08:58:12;100774.25;;;-2.59;60.88
35694;BME280;21812;55.536;37.664;2023-11-18T09:00:52;100750.59;;;-2.57;60.31
35694;BME280;21812;55.536;37.664;2023-11-18T09:03:23;100763.66;;;-2.40;59.52
35694;BME280;21812;55.536;37.664;2023-11-18T09:06:12;100767.19;;;-2.25;59.35
35694;BME280;21812;55.536;37.664;2023-11-18T09:08:57;100768.38;;;-2.30;58.83
35694;BME280;21812;55.536;37.664;2023-11-18T09:11:24;100769.91;;;-2.26;58.80
35694;BME280;21812;55.536;37.664;2023-11-18T09:13:54;100764.34;;;-2.36;58.15
35694;BME280;21812;55.536;37.664;2023-11-18T09:16:23;100757.91;;;-2.30;58.83
35694;BME280;21812;55.536;37.664;2023-11-18T09:18:51;100759.28;;;-2.23;58.24
35694;BME280;21812;55.536;37.664;2023-11-18T09:21:16;100763.25;;;-2.32;57.56
35694;BME280;21812;55.536;37.664;2023-11-18T09:23:48;100766.88;;;-2.19;58.50
35694;BME280;21812;55.536;37.664;2023-11-18T09:26:15;100762.50;;;-2.02;57.61
35694;BME280;21812;55.536;37.664;2023-11-18T09:28:42;100767.75;;;-1.86;57.04
35694;BME280;21812;55.536;37.664;2023-11-18T09:31:10;100762.84;;;-1.77;57.17
35694;BME280;21812;55.536;37.664;2023-11-18T09:33:41;100763.84;;;-1.79;56.86
35694;BME280;21812;55.536;37.664;2023-11-18T09:36:18;100758.97;;;-1.69;57.24
35694;BME280;21812;55.536;37.664;2023-11-18T09:38:44;100756.78;;;-1.77;57.05
35694;BME280;21812;55.536;37.664;2023-11-18T09:41:13;100766.41;;;-1.93;57.58
35694;BME280;21812;55.536;37.664;2023-11-18T09:43:41;100762.34;;;-1.99;57.83
35694;BME280;21812;55.536;37.664;2023-11-18T09:46:27;100759.16;;;-1.88;57.48
35694;BME280;21812;55.536;37.664;2023-11-18T09:51:44;100753.63;;;-1.68;57.41
35694;BME280;21812;55.536;37.664;2023-11-18T09:54:39;100715.19;;;-1.83;56.90
35694;BME280;21812;55.536;37.664;2023-11-18T09:57:18;100716.03;;;-1.67;54.95
35694;BME280;21812;55.536;37.664;2023-11-18T09:59:48;100753.97;;;-1.28;55.15
35694;BME280;21812;55.536;37.664;2023-11-18T10:02:22;100728.59;;;-0.83;54.96
35694;BME280;21812;55.536;37.664;2023-11-18T10:04:49;100744.13;;;0.61;53.51
35694;BME280;21812;55.536;37.664;2023-11-18T10:07:26;100744.94;;;2.03;49.82
35694;BME280;21812;55.536;37.664;2023-11-18T10:09:55;100732.34;;;3.37;46.76
35694;BME280;21812;55.536;37.664;2023-11-18T10:12:24;100733.84;;;4.29;43.13
35694;BME280;21812;55.536;37.664;2023-11-18T10:14:52;100731.38;;;4.70;41.20
35694;BME280;21812;55.536;37.664;2023-11-18T10:17:18;100729.47;;;5.35;39.61
35694;BME280;21812;55.536;37.664;2023-11-18T10:22:22;100697.84;;;5.84;38.34
35694;BME280;21812;55.536;37.664;2023-11-18T10:24:52;100708.31;;;6.45;36.66
35694;BME280;21812;55.536;37.664;2023-11-18T10:27:24;100711.75;;;6.95;36.49
35694;BME280;21812;55.536;37.664;2023-11-18T10:30:04;100716.09;;;7.53;35.09
35694;BME280;21812;55.536;37.664;2023-11-18T10:32:33;100711.19;;;7.48;34.31
35694;BME280;21812;55.536;37.664;2023-11-18T10:35:03;100644.00;;;5.83;34.60
35694;BME280;21812;55.536;37.664;2023-11-18T10:37:33;100720.38;;;4.65;36.89
35694;BME280;21812;55.536;37.664;2023-11-18T10:40:04;100693.06;;;2.87;39.99
35694;BME280;21812;55.536;37.664;2023-11-18T10:42:30;100718.16;;;2.09;42.13
35694;BME280;21812;55.536;37.664;2023-11-18T10:44:57;100723.63;;;1.69;43.43
35694;BME280;21812;55.536;37.664;2023-11-18T10:47:27;100729.97;;;1.41;44.24
35694;BME280;21812;55.536;37.664;2023-11-18T10:49:56;100721.25;;;1.14;44.84
35694;BME280;21812;55.536;37.664;2023-11-18T10:52:23;100723.31;;;0.84;45.61
35694;BME280;21812;55.536;37.664;2023-11-18T10:54:54;100728.72;;;0.55;46.49
35694;BME280;21812;55.536;37.664;2023-11-18T10:57:20;100717.19;;;0.30;46.69
35694;BME280;21812;55.536;37.664;2023-11-18T11:00:06;100683.84;;;0.18;46.47
35694;BME280;21812;55.536;37.664;2023-11-18T11:02:39;100724.69;;;0.36;46.40
35694;BME280;21812;55.536;37.664;2023-11-18T11:05:27;100724.03;;;0.33;47.13
35694;BME280;21812;55.536;37.664;2023-11-18T11:07:58;100728.44;;;0.05;47.10
35694;BME280;21812;55.536;37.664;2023-11-18T11:10:25;100737.94;;;-0.07;47.72
35694;BME280;21812;55.536;37.664;2023-11-18T11:12:55;100736.09;;;-0.19;47.95
35694;BME280;21812;55.536;37.664;2023-11-18T11:15:32;100733.28;;;-0.30;48.71
35694;BME280;21812;55.536;37.664;2023-11-18T11:18:04;100731.50;;;-0.30;49.28
35694;BME280;21812;55.536;37.664;2023-11-18T11:20:37;100710.97;;;-0.52;49.39
35694;BME280;21812;55.536;37.664;2023-11-18T11:28:42;100736.69;;;-0.57;48.82
35694;BME280;21812;55.536;37.664;2023-11-18T11:31:32;100722.03;;;-0.61;48.94
35694;BME280;21812;55.536;37.664;2023-11-18T11:34:06;100735.16;;;-0.61;48.77
35694;BME280;21812;55.536;37.664;2023-11-18T11:36:46;100726.34;;;-0.74;48.69
35694;BME280;21812;55.536;37.664;2023-11-18T11:39:14;100743.03;;;-0.75;49.12
35694;BME280;21812;55.536;37.664;2023-11-18T11:41:50;100706.28;;;-1.04;49.57
35694;BME280;21812;55.536;37.664;2023-11-18T11:44:17;100739.84;;;-0.81;49.40
35694;BME280;21812;55.536;37.664;2023-11-18T11:46:47;100708.91;;;-0.90;48.85
35694;BME280;21812;55.536;37.664;2023-11-18T11:49:20;100728.25;;;-0.62;48.77
35694;BME280;21812;55.536;37.664;2023-11-18T11:52:02;100657.59;;;-1.08;48.44
35694;BME280;21812;55.536;37.664;2023-11-18T11:54:43;100690.81;;;-1.09;48.59
35694;BME280;21812;55.536;37.664;2023-11-18T11:57:10;100733.94;;;-0.99;49.06
35694;BME280;21812;55.536;37.664;2023-11-18T12:02:21;100732.50;;;-1.04;49.87
35694;BME280;21812;55.536;37.664;2023-11-18T12:04:53;100715.91;;;-1.19;49.94
35694;BME280;21812;55.536;37.664;2023-11-18T12:07:22;100727.06;;;-1.15;50.10
35694;BME280;21812;55.536;37.664;2023-11-18T12:09:57;100737.34;;;-1.12;50.36
35694;BME280;21812;55.536;37.664;2023-11-18T12:12:25;100730.97;;;-1.23;50.68
35694;BME280;21812;55.536;37.664;2023-11-18T12:14:57;100739.94;;;-1.27;50.97
35694;BME280;21812;55.536;37.664;2023-11-18T12:17:26;100734.63;;;-1.25;50.83
35694;BME280;21812;55.536;37.664;2023-11-18T12:19:58;100742.94;;;-1.19;50.40
35694;BME280;21812;55.536;37.664;2023-11-18T12:23:04;100744.66;;;-1.03;50.08
35694;BME280;21812;55.536;37.664;2023-11-18T12:25:46;100749.34;;;-1.08;49.98
35694;BME280;21812;55.536;37.664;2023-11-18T12:28:17;100735.84;;;-1.16;50.11
35694;BME280;21812;55.536;37.664;2023-11-18T12:30:53;100746.00;;;-1.10;49.68
35694;BME280;21812;55.536;37.664;2023-11-18T12:41:37;100750.13;;;-1.52;51.71
35694;BME280;21812;55.536;37.664;2023-11-18T12:47:10;100705.66;;;-1.84;50.95
35694;BME280;21812;55.536;37.664;2023-11-18T12:49:44;100749.56;;;-1.58;50.84
35694;BME280;21812;55.536;37.664;2023-11-18T12:52:15;100745.09;;;-1.55;51.42
35694;BME280;21812;55.536;37.664;2023-11-18T12:54:44;100749.56;;;-1.58;51.84
35694;BME280;21812;55.536;37.664;2023-11-18T12:57:17;100751.94;;;-1.69;52.78
35694;BME280;21812;55.536;37.664;2023-11-18T12:59:45;100746.78;;;-1.70;52.67
35694;BME280;21812;55.536;37.664;2023-11-18T13:02:12;100743.56;;;-1.75;51.91
35694;BME280;21812;55.536;37.664;2023-11-18T13:04:51;100744.00;;;-1.83;51.24
35694;BME280;21812;55.536;37.664;2023-11-18T13:07:21;100746.81;;;-1.86;52.42
35694;BME280;21812;55.536;37.664;2023-11-18T13:09:47;100754.16;;;-1.93;53.39
35694;BME280;21812;55.536;37.664;2023-11-18T13:12:15;100742.56;;;-2.05;53.71
35694;BME280;21812;55.536;37.664;2023-11-18T13:14:44;100739.88;;;-2.03;52.99